createdAt,value
2019-01-13T00:00:41.035Z,1.19
2019-01-13T00:03:08.634Z,1.17
2019-01-13T00:05:36.062Z,1.15
2019-01-13T00:08:04.128Z,1.14
2019-01-13T00:10:31.566Z,1.17
2019-01-13T00:12:58.949Z,1.14
2019-01-13T00:15:26.354Z,1.12
2019-01-13T00:17:53.710Z,1.16
2019-01-13T00:20:21.168Z,1.18
2019-01-13T00:22:48.562Z,1.25
2019-01-13T00:25:15.970Z,1.21
2019-01-13T00:27:43.349Z,1.17
2019-01-13T00:30:18.818Z,1.13
2019-01-13T00:32:40.922Z,1.13
2019-01-13T00:35:08.466Z,1.16
2019-01-13T00:37:35.927Z,1.12
2019-01-13T00:40:04.885Z,1.17
2019-01-13T00:42:32.267Z,1.17
2019-01-13T00:44:59.647Z,1.20
2019-01-13T00:47:27.044Z,1.24
2019-01-13T00:49:54.452Z,1.25
2019-01-13T00:52:21.930Z,1.24
2019-01-13T00:54:49.399Z,1.29
2019-01-13T00:57:16.767Z,1.19
2019-01-13T00:59:44.148Z,1.28
2019-01-13T01:02:12.503Z,1.28
2019-01-13T01:04:39.986Z,1.28
2019-01-13T01:07:07.638Z,1.31
2019-01-13T01:09:35.067Z,1.27
2019-01-13T01:12:02.425Z,1.20
2019-01-13T01:14:29.811Z,1.17
2019-01-13T01:16:57.151Z,1.16
2019-01-13T01:19:24.578Z,1.21
2019-01-13T01:21:51.955Z,1.22
2019-01-13T01:24:19.405Z,1.22
2019-01-13T01:26:46.886Z,1.24
2019-01-13T01:29:14.278Z,1.24
2019-01-13T01:31:41.689Z,1.22
2019-01-13T01:34:11.046Z,1.17
2019-01-13T01:36:38.420Z,1.18
2019-01-13T01:39:06.799Z,1.19
2019-01-13T01:41:34.227Z,1.19
2019-01-13T01:44:06.554Z,1.24
2019-01-13T01:46:34.035Z,1.24
2019-01-13T01:49:01.532Z,1.25
2019-01-13T01:51:28.917Z,1.28
2019-01-13T01:53:56.324Z,1.27
2019-01-13T01:56:23.692Z,1.24
2019-01-13T01:58:51.162Z,1.25
2019-01-13T02:01:18.568Z,1.31
2019-01-13T02:03:46.358Z,1.36
2019-01-13T02:06:13.776Z,1.29
2019-01-13T02:08:41.124Z,1.30
2019-01-13T02:11:08.516Z,1.36
2019-01-13T02:13:35.897Z,1.38
2019-01-13T02:16:03.246Z,1.35
2019-01-13T02:18:30.635Z,1.32
2019-01-13T02:20:58.042Z,1.37
2019-01-13T02:23:25.494Z,1.31
2019-01-13T02:25:52.896Z,1.34
2019-01-13T02:28:20.223Z,1.37
2019-01-13T02:30:49.304Z,1.33
2019-01-13T02:33:16.874Z,1.38
2019-01-13T02:35:44.224Z,1.42
2019-01-13T02:38:11.625Z,1.44
2019-01-13T02:40:38.978Z,1.44
2019-01-13T02:43:06.380Z,1.41
2019-01-13T02:45:33.854Z,1.44
2019-01-13T02:48:01.237Z,1.44
2019-01-13T02:50:28.727Z,1.44
2019-01-13T02:52:56.177Z,1.53
2019-01-13T02:55:23.530Z,1.57
2019-01-13T02:57:51.227Z,1.54
2019-01-13T03:00:20.227Z,1.53
2019-01-13T03:02:47.594Z,1.48
2019-01-13T03:05:15.111Z,1.48
2019-01-13T03:07:42.603Z,1.48
2019-01-13T03:10:14.124Z,1.49
2019-01-13T03:12:41.557Z,1.49
2019-01-13T03:15:10.141Z,1.47
2019-01-13T03:17:37.494Z,1.48
2019-01-13T03:20:05.202Z,1.47
2019-01-13T03:22:32.559Z,1.52
2019-01-13T03:25:00.007Z,1.49
2019-01-13T03:27:27.716Z,1.52
2019-01-13T03:29:55.195Z,1.52
2019-01-13T03:32:22.546Z,1.53
2019-01-13T03:34:49.997Z,1.54
2019-01-13T03:37:17.607Z,1.52
2019-01-13T03:39:44.977Z,1.53
2019-01-13T03:42:12.332Z,1.52
2019-01-13T03:44:39.716Z,1.57
2019-01-13T03:47:07.074Z,1.63
2019-01-13T03:49:34.443Z,1.64
2019-01-13T03:52:01.889Z,1.61
2019-01-13T03:54:29.237Z,1.62
2019-01-13T03:56:56.611Z,1.64
2019-01-13T03:59:23.999Z,1.62
2019-01-13T04:01:51.402Z,1.60
2019-01-13T04:04:18.761Z,1.59
2019-01-13T04:06:46.258Z,1.63
2019-01-13T04:09:13.631Z,1.62
2019-01-13T04:11:40.995Z,1.63
2019-01-13T04:14:08.411Z,1.54
2019-01-13T04:16:35.770Z,1.54
2019-01-13T04:19:03.743Z,1.55
2019-01-13T04:21:31.090Z,1.59
2019-01-13T04:23:58.453Z,1.60
2019-01-13T04:26:32.229Z,1.61
2019-01-13T04:28:59.607Z,1.69
2019-01-13T04:31:27.157Z,1.70
2019-01-13T04:33:54.633Z,1.71
2019-01-13T04:36:22.027Z,1.70
2019-01-13T04:38:49.459Z,1.68
2019-01-13T04:41:16.907Z,1.70
2019-01-13T04:43:44.679Z,1.74
2019-01-13T04:46:12.067Z,1.75
2019-01-13T04:48:39.498Z,1.77
2019-01-13T04:51:07.153Z,1.82
2019-01-13T04:53:34.506Z,1.77
2019-01-13T04:56:01.870Z,1.77
2019-01-13T04:58:29.260Z,1.77
2019-01-13T05:00:56.690Z,1.87
2019-01-13T05:03:24.058Z,1.86
2019-01-13T05:05:51.446Z,1.82
2019-01-13T05:08:18.813Z,1.80
2019-01-13T05:10:46.287Z,1.86
2019-01-13T05:13:13.626Z,1.85
2019-01-13T05:15:40.996Z,1.73
2019-01-13T05:18:08.397Z,1.74
2019-01-13T05:20:36.129Z,1.74
2019-01-13T05:23:03.495Z,1.76
2019-01-13T05:25:30.847Z,1.76
2019-01-13T05:27:58.238Z,1.70
2019-01-13T05:30:25.592Z,1.74
2019-01-13T05:32:52.985Z,1.78
2019-01-13T05:35:20.368Z,1.75
2019-01-13T05:37:47.840Z,1.75
2019-01-13T05:40:16.163Z,1.75
2019-01-13T05:42:43.711Z,1.77
2019-01-13T05:45:11.929Z,1.75
2019-01-13T05:47:39.259Z,1.76
2019-01-13T05:50:07.552Z,1.76
2019-01-13T05:52:35.763Z,1.76
2019-01-13T05:55:03.355Z,1.73
2019-01-13T05:57:30.725Z,1.78
2019-01-13T05:59:58.103Z,1.77
2019-01-13T06:02:25.571Z,1.75
2019-01-13T06:04:52.948Z,1.78
2019-01-13T06:07:20.331Z,1.78
2019-01-13T06:09:47.711Z,1.81
2019-01-13T06:12:15.147Z,1.74
2019-01-13T06:14:42.537Z,1.71
2019-01-13T06:17:10.259Z,1.68
2019-01-13T06:19:37.677Z,1.65
2019-01-13T06:22:05.028Z,1.64
2019-01-13T06:24:32.401Z,1.67
2019-01-13T06:26:59.745Z,1.68
2019-01-13T06:29:27.150Z,1.70
2019-01-13T06:31:56.465Z,1.67
2019-01-13T06:34:23.815Z,1.63
2019-01-13T06:36:51.266Z,1.64
2019-01-13T06:39:18.754Z,1.65
2019-01-13T06:41:46.118Z,1.63
2019-01-13T06:44:13.459Z,1.62
2019-01-13T06:46:40.866Z,1.67
2019-01-13T06:49:08.428Z,1.64
2019-01-13T06:51:35.904Z,1.62
2019-01-13T06:54:03.245Z,1.62
2019-01-13T06:56:30.612Z,1.63
2019-01-13T06:58:57.989Z,1.64
2019-01-13T07:01:25.365Z,1.62
2019-01-13T07:03:53.063Z,1.68
2019-01-13T07:06:20.431Z,1.63
2019-01-13T07:08:47.805Z,1.65
2019-01-13T07:11:15.185Z,1.64
2019-01-13T07:13:42.927Z,1.65
2019-01-13T07:16:10.300Z,1.69
2019-01-13T07:18:37.653Z,1.70
2019-01-13T07:21:05.386Z,1.71
2019-01-13T07:23:32.733Z,1.80
2019-01-13T07:26:00.094Z,1.75
2019-01-13T07:28:27.592Z,1.70
2019-01-13T07:30:54.952Z,1.71
2019-01-13T07:33:22.602Z,1.75
2019-01-13T07:35:49.955Z,1.79
2019-01-13T07:38:17.338Z,1.74
2019-01-13T07:40:44.820Z,1.82
2019-01-13T07:43:12.179Z,1.83
2019-01-13T07:45:39.549Z,1.78
2019-01-13T07:48:06.938Z,1.81
2019-01-13T07:50:34.572Z,1.79
2019-01-13T07:53:01.951Z,1.79
2019-01-13T07:55:29.336Z,1.80
2019-01-13T07:57:56.823Z,1.78
2019-01-13T08:00:31.098Z,1.81
2019-01-13T08:02:58.529Z,1.84
2019-01-13T08:05:26.230Z,1.82
2019-01-13T08:07:53.578Z,1.82
2019-01-13T08:10:20.958Z,1.82
2019-01-13T08:12:48.322Z,1.84
2019-01-13T08:15:16.702Z,1.83
2019-01-13T08:17:44.198Z,1.86
2019-01-13T08:20:13.457Z,1.86
2019-01-13T08:22:40.873Z,1.88
2019-01-13T08:25:08.235Z,1.86
2019-01-13T08:27:35.610Z,1.86
2019-01-13T08:30:04.458Z,1.86
2019-01-13T08:32:31.808Z,1.89
2019-01-13T08:34:59.202Z,1.88
2019-01-13T08:37:26.660Z,1.92
2019-01-13T08:39:54.069Z,2.00
2019-01-13T08:42:21.870Z,1.97
2019-01-13T08:44:49.243Z,2.07
2019-01-13T08:47:16.860Z,2.02
2019-01-13T08:49:44.233Z,2.05
2019-01-13T08:52:11.664Z,2.06
2019-01-13T08:54:39.162Z,2.06
2019-01-13T08:57:06.623Z,2.03
2019-01-13T08:59:34.053Z,2.08
2019-01-13T09:02:01.450Z,2.06
2019-01-13T09:04:28.830Z,2.04
2019-01-13T09:06:56.228Z,2.07
2019-01-13T09:09:23.655Z,2.11
2019-01-13T09:11:51.018Z,2.16
2019-01-13T09:14:18.449Z,2.12
2019-01-13T09:16:45.862Z,2.14
2019-01-13T09:19:13.241Z,2.14
2019-01-13T09:21:40.666Z,2.25
2019-01-13T09:24:08.139Z,2.17
2019-01-13T09:26:35.630Z,2.19
2019-01-13T09:29:03.003Z,2.23
2019-01-13T09:31:30.411Z,2.23
2019-01-13T09:33:57.815Z,2.22
2019-01-13T09:36:25.198Z,2.21
2019-01-13T09:38:52.625Z,2.28
2019-01-13T09:41:20.014Z,2.26
2019-01-13T09:43:47.427Z,2.25
2019-01-13T09:46:14.871Z,2.19
2019-01-13T09:48:42.274Z,2.24
2019-01-13T09:51:09.650Z,2.25
2019-01-13T09:53:37.054Z,2.19
2019-01-13T09:56:04.458Z,2.23
2019-01-13T09:58:31.922Z,2.27
2019-01-13T10:00:59.357Z,2.30
2019-01-13T10:03:26.827Z,2.30
2019-01-13T10:05:54.343Z,2.30
2019-01-13T10:08:21.812Z,2.32
2019-01-13T10:10:49.318Z,2.40
2019-01-13T10:13:16.843Z,2.40
2019-01-13T10:15:45.673Z,2.32
2019-01-13T10:18:13.302Z,2.34
2019-01-13T10:20:40.679Z,2.29
2019-01-13T10:23:08.043Z,2.32
2019-01-13T10:25:35.449Z,2.36
2019-01-13T10:28:03.065Z,2.35
2019-01-13T10:30:31.198Z,2.29
2019-01-13T10:32:58.640Z,2.26
2019-01-13T10:35:26.350Z,2.13
2019-01-13T10:37:53.802Z,2.06
2019-01-13T10:40:22.117Z,2.04
2019-01-13T10:42:49.622Z,2.00
2019-01-13T10:45:17.095Z,1.98
2019-01-13T10:47:44.713Z,1.96
2019-01-13T10:50:14.368Z,1.98
2019-01-13T10:52:41.874Z,1.94
2019-01-13T10:55:09.433Z,1.91
2019-01-13T10:57:36.835Z,1.87
2019-01-13T11:00:05.734Z,1.83
2019-01-13T11:02:33.150Z,1.83
2019-01-13T11:05:00.917Z,1.80
2019-01-13T11:07:28.374Z,1.86
2019-01-13T11:09:55.804Z,1.87
2019-01-13T11:12:23.287Z,1.89
2019-01-13T11:14:50.764Z,1.92
2019-01-13T11:17:18.481Z,1.87
2019-01-13T11:19:45.999Z,1.89
2019-01-13T11:22:13.352Z,1.92
2019-01-13T11:24:40.780Z,1.94
2019-01-13T11:27:08.229Z,1.91
2019-01-13T11:29:35.619Z,1.95
2019-01-13T11:32:03.070Z,2.00
2019-01-13T11:34:30.553Z,2.01
2019-01-13T11:36:58.202Z,2.04
2019-01-13T11:39:25.574Z,1.97
2019-01-13T11:41:52.957Z,2.00
2019-01-13T11:44:20.398Z,2.09
2019-01-13T11:46:47.855Z,2.08
2019-01-13T11:49:15.223Z,2.15
2019-01-13T11:51:42.666Z,2.17
2019-01-13T11:54:10.159Z,2.17
2019-01-13T11:56:37.549Z,2.14
2019-01-13T11:59:04.987Z,2.24
2019-01-13T12:01:32.402Z,2.27
2019-01-13T12:03:59.799Z,2.34
2019-01-13T12:06:27.164Z,2.37
2019-01-13T12:08:54.587Z,2.38
2019-01-13T12:11:22.041Z,2.37
2019-01-13T12:13:49.442Z,2.38
2019-01-13T12:16:16.806Z,2.35
2019-01-13T12:18:44.182Z,2.40
2019-01-13T12:21:11.627Z,2.36
2019-01-13T12:23:38.991Z,2.36
2019-01-13T12:26:06.367Z,2.33
2019-01-13T12:28:33.821Z,2.35
2019-01-13T12:31:01.228Z,2.33
2019-01-13T12:33:28.748Z,2.44
2019-01-13T12:35:56.141Z,2.48
2019-01-13T12:38:23.503Z,2.48
2019-01-13T12:40:51.020Z,2.51
2019-01-13T12:43:18.406Z,2.45
2019-01-13T12:45:45.920Z,2.57
2019-01-13T12:48:13.322Z,2.54
2019-01-13T12:50:40.700Z,2.51
2019-01-13T12:53:08.113Z,2.57
2019-01-13T12:55:35.512Z,2.49
2019-01-13T12:58:03.321Z,2.55
2019-01-13T13:00:30.852Z,2.55
2019-01-13T13:02:58.256Z,2.49
2019-01-13T13:05:25.833Z,2.52
2019-01-13T13:07:53.466Z,2.53
2019-01-13T13:10:28.347Z,2.50
2019-01-13T13:12:55.790Z,2.49
2019-01-13T13:15:23.198Z,2.54
2019-01-13T13:17:50.668Z,2.52
2019-01-13T13:20:18.448Z,2.51
2019-01-13T13:22:45.968Z,2.54
2019-01-13T13:25:13.506Z,2.55
2019-01-13T13:27:40.916Z,2.51
2019-01-13T13:30:10.827Z,2.49
2019-01-13T13:32:38.272Z,2.51
2019-01-13T13:35:05.791Z,2.51
2019-01-13T13:37:33.211Z,2.54
2019-01-13T13:40:00.630Z,2.54
2019-01-13T13:42:28.376Z,2.61
2019-01-13T13:44:55.837Z,2.54
2019-01-13T13:47:23.307Z,2.52
2019-01-13T13:49:50.691Z,2.53
2019-01-13T13:52:18.182Z,2.58
2019-01-13T13:54:45.592Z,2.55
2019-01-13T13:57:13.061Z,2.55
2019-01-13T13:59:40.548Z,2.56
2019-01-13T14:02:08.191Z,2.59
2019-01-13T14:04:35.578Z,2.53
2019-01-13T14:07:02.947Z,2.59
2019-01-13T14:09:30.364Z,2.55
2019-01-13T14:11:57.822Z,2.56
2019-01-13T14:14:25.242Z,2.56
2019-01-13T14:16:52.710Z,2.51
2019-01-13T14:19:20.088Z,2.55
2019-01-13T14:21:47.636Z,2.57
2019-01-13T14:24:15.171Z,2.54
2019-01-13T14:26:42.575Z,2.49
2019-01-13T14:29:10.128Z,2.54
2019-01-13T14:31:37.622Z,2.56
2019-01-13T14:34:05.035Z,2.63
2019-01-13T14:36:32.454Z,2.69
2019-01-13T14:38:59.932Z,2.65
2019-01-13T14:41:27.392Z,2.64
2019-01-13T14:43:54.879Z,2.66
2019-01-13T14:46:22.327Z,2.66
2019-01-13T14:48:49.762Z,2.66
2019-01-13T14:51:17.172Z,2.66
2019-01-13T14:53:44.626Z,2.64
2019-01-13T14:56:12.070Z,2.63
2019-01-13T14:58:39.565Z,2.67
2019-01-13T15:01:07.333Z,2.86
2019-01-13T15:03:34.732Z,2.98
2019-01-13T15:06:02.137Z,3.00
2019-01-13T15:08:29.577Z,3.11
2019-01-13T15:10:56.943Z,3.25
2019-01-13T15:13:24.324Z,3.22
2019-01-13T15:15:51.690Z,3.21
2019-01-13T15:18:19.094Z,3.22
2019-01-13T15:20:46.735Z,3.18
2019-01-13T15:23:14.292Z,3.13
2019-01-13T15:25:41.763Z,3.14
2019-01-13T15:28:09.315Z,3.15
2019-01-13T15:30:37.390Z,3.10
2019-01-13T15:33:05.679Z,3.11
2019-01-13T15:35:33.065Z,3.12
2019-01-13T15:38:00.419Z,3.13
2019-01-13T15:40:27.837Z,3.20
2019-01-13T15:42:55.185Z,3.20
2019-01-13T15:45:22.769Z,3.22
2019-01-13T15:47:50.140Z,3.26
2019-01-13T15:50:18.489Z,3.29
2019-01-13T15:52:46.011Z,3.31
2019-01-13T15:55:13.486Z,3.38
2019-01-13T15:57:40.866Z,3.39
2019-01-13T16:00:10.347Z,3.43
2019-01-13T16:02:37.789Z,3.40
2019-01-13T16:05:05.385Z,3.38
2019-01-13T16:07:32.872Z,3.35
2019-01-13T16:10:00.393Z,3.32
2019-01-13T16:12:27.806Z,3.36
2019-01-13T16:14:56.258Z,3.30
2019-01-13T16:17:23.651Z,3.33
2019-01-13T16:19:51.138Z,3.40
2019-01-13T16:22:18.647Z,3.44
2019-01-13T16:24:46.124Z,3.47
2019-01-13T16:27:13.542Z,3.49
2019-01-13T16:29:41.016Z,3.45
2019-01-13T16:32:08.492Z,3.42
2019-01-13T16:34:35.980Z,3.41
2019-01-13T16:37:03.334Z,3.35
2019-01-13T16:39:30.722Z,3.27
2019-01-13T16:41:58.155Z,3.23
2019-01-13T16:44:25.564Z,3.19
2019-01-13T16:46:53.070Z,3.21
2019-01-13T16:49:20.497Z,3.30
2019-01-13T16:51:48.227Z,3.29
2019-01-13T16:54:15.596Z,3.31
2019-01-13T16:56:42.986Z,3.28
2019-01-13T16:59:10.413Z,3.25
2019-01-13T17:01:37.852Z,3.23
2019-01-13T17:04:05.274Z,3.26
2019-01-13T17:06:32.743Z,3.21
2019-01-13T17:09:00.131Z,3.26
2019-01-13T17:11:27.523Z,3.22
2019-01-13T17:13:54.914Z,3.33
2019-01-13T17:16:22.337Z,3.37
2019-01-13T17:18:49.872Z,3.29
2019-01-13T17:21:17.693Z,3.33
2019-01-13T17:23:45.063Z,3.30
2019-01-13T17:26:12.427Z,3.35
2019-01-13T17:28:39.858Z,3.37
2019-01-13T17:31:07.398Z,3.37
2019-01-13T17:33:34.783Z,3.35
2019-01-13T17:36:02.320Z,3.34
2019-01-13T17:38:29.709Z,3.35
2019-01-13T17:40:57.097Z,3.38
2019-01-13T17:43:24.499Z,3.29
2019-01-13T17:45:51.880Z,3.29
2019-01-13T17:48:19.247Z,3.30
2019-01-13T17:50:46.672Z,3.33
2019-01-13T17:53:14.119Z,3.28
2019-01-13T17:55:41.567Z,3.35
2019-01-13T17:58:09.199Z,3.37
2019-01-13T18:00:41.046Z,3.40
2019-01-13T18:03:08.939Z,3.45
2019-01-13T18:05:36.430Z,3.44
2019-01-13T18:08:03.895Z,3.42
2019-01-13T18:10:31.295Z,3.43
2019-01-13T18:12:58.708Z,3.44
2019-01-13T18:15:26.272Z,3.42
2019-01-13T18:17:53.663Z,3.43
2019-01-13T18:20:21.636Z,3.47
2019-01-13T18:22:49.091Z,3.45
2019-01-13T18:25:16.624Z,3.49
2019-01-13T18:27:44.180Z,3.48
2019-01-13T18:30:13.251Z,3.49
2019-01-13T18:32:40.649Z,3.43
2019-01-13T18:35:08.960Z,3.44
2019-01-13T18:37:36.366Z,3.41
2019-01-13T18:40:04.068Z,3.45
2019-01-13T18:42:31.476Z,3.43
2019-01-13T18:44:58.864Z,3.45
2019-01-13T18:47:26.334Z,3.44
2019-01-13T18:49:53.759Z,3.51
2019-01-13T18:52:21.153Z,3.53
2019-01-13T18:54:48.558Z,3.51
2019-01-13T18:57:16.010Z,3.52
2019-01-13T18:59:43.493Z,3.57
2019-01-13T19:02:11.009Z,3.55
2019-01-13T19:04:38.522Z,3.53
2019-01-13T19:07:05.996Z,3.56
2019-01-13T19:09:33.385Z,3.57
2019-01-13T19:12:01.324Z,3.54
2019-01-13T19:14:32.875Z,3.56
2019-01-13T19:17:21.899Z,3.58
2019-01-13T19:19:56.583Z,3.59
2019-01-13T19:22:24.842Z,3.55
2019-01-13T19:24:54.362Z,3.59
2019-01-13T19:27:22.074Z,3.58
2019-01-13T19:29:49.524Z,3.58
2019-01-13T19:32:16.877Z,3.59
2019-01-13T19:34:44.302Z,3.64
2019-01-13T19:37:11.699Z,3.63
2019-01-13T19:39:39.181Z,3.62
2019-01-13T19:42:06.666Z,3.60
2019-01-13T19:44:34.092Z,3.64
2019-01-13T19:47:01.461Z,3.67
2019-01-13T19:49:28.872Z,3.69
2019-01-13T19:51:58.104Z,3.69
2019-01-13T19:54:25.617Z,3.68
2019-01-13T19:56:53.227Z,3.69
2019-01-13T19:59:27.907Z,3.69
2019-01-13T20:01:59.239Z,3.67
2019-01-13T20:04:26.655Z,3.65
2019-01-13T20:06:54.161Z,3.60
2019-01-13T20:09:21.555Z,3.57
2019-01-13T20:11:49.007Z,3.60
2019-01-13T20:14:16.468Z,3.58
2019-01-13T20:16:43.962Z,3.64
2019-01-13T20:19:14.558Z,3.64
2019-01-13T20:21:41.973Z,3.67
2019-01-13T20:24:09.452Z,3.66
2019-01-13T20:26:37.044Z,3.63
2019-01-13T20:29:04.450Z,3.63
2019-01-13T20:31:31.993Z,3.66
2019-01-13T20:33:59.374Z,3.64
2019-01-13T20:36:26.881Z,3.62
2019-01-13T20:38:54.298Z,3.61
2019-01-13T20:41:21.900Z,3.66
2019-01-13T20:43:49.393Z,3.68
2019-01-13T20:46:16.863Z,3.75
2019-01-13T20:48:45.532Z,3.83
2019-01-13T20:51:13.259Z,3.87
2019-01-13T20:53:40.729Z,3.90
2019-01-13T20:56:08.235Z,3.93
2019-01-13T20:58:35.603Z,3.98
2019-01-13T21:01:03.100Z,4.00
2019-01-13T21:03:30.519Z,3.99
2019-01-13T21:05:57.958Z,4.05
2019-01-13T21:08:25.433Z,3.99
2019-01-13T21:10:52.811Z,4.02
2019-01-13T21:13:20.218Z,4.10
2019-01-13T21:15:47.640Z,4.17
2019-01-13T21:18:15.066Z,4.25
2019-01-13T21:20:42.538Z,4.25
2019-01-13T21:23:09.886Z,4.24
2019-01-13T21:25:37.326Z,4.25
2019-01-13T21:28:05.026Z,4.30
2019-01-13T21:30:32.503Z,4.35
2019-01-13T21:32:59.963Z,4.36
2019-01-13T21:35:33.726Z,4.34
2019-01-13T21:37:56.661Z,4.39
2019-01-13T21:40:24.016Z,4.38
2019-01-13T21:42:51.401Z,4.34
2019-01-13T21:45:19.163Z,4.34
2019-01-13T21:47:46.647Z,4.35
2019-01-13T21:50:15.214Z,4.41
2019-01-13T21:52:42.662Z,4.38
2019-01-13T21:55:10.418Z,4.37
2019-01-13T21:57:37.852Z,4.36
2019-01-13T22:00:07.874Z,4.34
2019-01-13T22:02:35.291Z,4.31
2019-01-13T22:05:02.886Z,4.35
2019-01-13T22:07:30.590Z,4.36
2019-01-13T22:09:58.036Z,4.34
2019-01-13T22:12:25.395Z,4.37
2019-01-13T22:14:52.789Z,4.31
2019-01-13T22:17:20.546Z,4.34
2019-01-13T22:19:48.035Z,4.36
2019-01-13T22:22:15.402Z,4.38
2019-01-13T22:24:42.806Z,4.37
2019-01-13T22:27:10.219Z,4.37
2019-01-13T22:29:37.910Z,4.34
2019-01-13T22:32:05.306Z,4.36
2019-01-13T22:34:32.675Z,4.33
2019-01-13T22:37:00.082Z,4.24
2019-01-13T22:39:27.451Z,4.28
2019-01-13T22:41:54.869Z,4.28
2019-01-13T22:44:22.381Z,4.27
2019-01-13T22:46:49.717Z,4.20
2019-01-13T22:49:17.098Z,4.22
2019-01-13T22:51:44.484Z,4.20
2019-01-13T22:54:12.014Z,4.19
2019-01-13T22:56:39.842Z,4.18
2019-01-13T22:59:07.202Z,4.25
2019-01-13T23:01:38.381Z,4.28
2019-01-13T23:04:07.002Z,4.27
2019-01-13T23:06:34.361Z,4.27
2019-01-13T23:09:01.752Z,4.29
2019-01-13T23:11:29.118Z,4.24
2019-01-13T23:13:56.766Z,4.33
2019-01-13T23:16:24.162Z,4.27
2019-01-13T23:18:51.605Z,4.18
2019-01-13T23:21:18.966Z,4.23
2019-01-13T23:23:46.358Z,4.21
2019-01-13T23:26:13.716Z,4.15
2019-01-13T23:28:41.173Z,4.13
2019-01-13T23:31:08.538Z,4.14
2019-01-13T23:33:35.949Z,4.11
2019-01-13T23:36:03.399Z,4.10
2019-01-13T23:38:30.842Z,4.18
2019-01-13T23:40:58.222Z,4.22
2019-01-13T23:43:25.622Z,4.22
2019-01-13T23:45:52.975Z,4.29
2019-01-13T23:48:20.383Z,4.22
2019-01-13T23:50:47.731Z,4.21
2019-01-13T23:53:15.158Z,4.19
2019-01-13T23:55:42.527Z,4.15
2019-01-13T23:58:09.896Z,4.18
